Time;durP1;ratioP1;P1;durP2;ratioP2;P2;SDS_P1;SDS_P2;PMS_P1;PMS_P2;Temp;Humidity;BMP_temperature;BMP_pressure;BME280_temperature;BME280_humidity;BME280_pressure;Samples;Min_cycle;Max_cycle;Signal;HPM_P1;HPM_P2
2021/11/09 00:00:45;;;;;;;9.00;3.08;;;;;;;-2.88;77.11;101942.59;5074744;28;20119;-67
2021/11/09 00:03:11;;;;;;;3.13;2.53;;;;;;;-2.86;77.35;101950.38;5074612;28;20052;-67
2021/11/09 00:08:44;;;;;;;2.72;2.50;;;;;;;-2.92;77.21;101947.94;5018918;28;20356;-66
2021/11/09 00:11:10;;;;;;;4.05;2.75;;;;;;;-3.04;77.04;101935.28;5074556;28;20032;-65
2021/11/09 00:13:36;;;;;;;8.77;2.83;;;;;;;-2.98;77.19;101951.59;5074392;28;20055;-66
2021/11/09 00:16:01;;;;;;;3.73;2.50;;;;;;;-2.92;76.84;101961.81;5073616;28;20040;-67
2021/11/09 00:18:26;;;;;;;3.43;2.80;;;;;;;-3.06;77.43;101947.50;5074082;28;20037;-68
2021/11/09 00:20:52;;;;;;;3.47;2.73;;;;;;;-2.90;77.11;101983.47;5073772;28;20036;-69
2021/11/09 00:23:17;;;;;;;4.53;2.77;;;;;;;-2.91;77.29;101984.38;5055508;28;20040;-67
2021/11/09 00:25:43;;;;;;;4.17;2.80;;;;;;;-3.01;77.32;101980.34;5055394;28;20033;-67
2021/11/09 00:28:11;;;;;;;3.53;2.40;;;;;;;-2.95;77.25;101993.19;5073128;28;20085;-67
2021/11/09 00:30:37;;;;;;;4.82;2.80;;;;;;;-3.02;77.55;101990.81;5073043;28;20390;-65
2021/11/09 00:33:04;;;;;;;3.47;2.67;;;;;;;-3.19;77.69;101973.06;5072750;28;20033;-67
2021/11/09 00:35:31;;;;;;;4.78;2.40;;;;;;;-3.10;77.73;101988.44;5073013;28;20170;-68
2021/11/09 00:37:59;;;;;;;2.58;2.20;;;;;;;-2.97;78.01;102021.06;5072803;28;20610;-67
2021/11/09 00:40:32;;;;;;;3.42;2.30;;;;;;;-2.96;77.83;102019.31;5072605;28;20085;-66
2021/11/09 00:42:59;;;;;;;4.53;2.67;;;;;;;-3.07;77.25;102008.34;5072634;28;20046;-66
2021/11/09 00:45:26;;;;;;;3.72;2.80;;;;;;;-2.99;77.83;102022.84;5072576;28;20143;-67
2021/11/09 00:47:53;;;;;;;5.03;3.08;;;;;;;-3.07;78.04;102019.63;5054984;28;20091;-65
2021/11/09 00:50:21;;;;;;;9.10;3.20;;;;;;;-3.12;77.49;102026.72;5072606;28;20037;-65
2021/11/09 00:52:47;;;;;;;3.92;2.88;;;;;;;-3.13;77.89;102019.81;5055009;28;20036;-65
2021/11/09 00:55:13;;;;;;;7.45;3.50;;;;;;;-3.42;77.48;101978.97;5072799;28;20044;-67
2021/11/09 00:57:41;;;;;;;4.72;3.78;;;;;;;-3.14;77.52;102036.34;5072946;28;20035;-68
2021/11/09 01:00:09;;;;;;;7.60;4.38;;;;;;;-3.15;77.33;102037.25;5073165;28;20127;-65
2021/11/09 01:02:35;;;;;;;4.47;4.07;;;;;;;-3.17;78.45;102033.84;5073025;28;20490;-66
2021/11/09 01:05:01;;;;;;;4.80;3.73;;;;;;;-3.21;78.01;102042.59;5072812;28;20176;-65
2021/11/09 01:07:28;;;;;;;6.32;3.65;;;;;;;-3.42;77.43;101996.34;5072354;28;20032;-67
2021/11/09 01:09:54;;;;;;;4.90;3.53;;;;;;;-3.22;77.54;102026.13;5072288;28;20040;-67
2021/11/09 01:12:19;;;;;;;3.87;2.63;;;;;;;-3.25;77.57;102020.16;5072170;28;20089;-67
2021/11/09 01:14:44;;;;;;;7.77;3.10;;;;;;;-3.31;77.52;102012.50;5071588;28;20437;-65
2021/11/09 01:17:10;;;;;;;3.70;3.30;;;;;;;-3.28;77.81;102028.91;5072220;28;20038;-65
2021/11/09 01:19:38;;;;;;;5.77;3.60;;;;;;;-3.22;77.53;102040.91;5072058;28;20467;-67
2021/11/09 01:22:05;;;;;;;5.97;2.88;;;;;;;-3.27;77.68;102027.16;5071736;28;20037;-66
2021/11/09 01:24:30;;;;;;;4.32;3.58;;;;;;;-3.57;77.57;101980.25;5071636;28;20449;-68
2021/11/09 01:26:56;;;;;;;11.07;4.80;;;;;;;-3.31;76.92;102031.59;5071927;28;20040;-64
2021/11/09 01:29:22;;;;;;;5.80;4.43;;;;;;;-3.28;77.57;102046.28;5071927;28;20068;-65
2021/11/09 01:31:49;;;;;;;5.63;4.30;;;;;;;-3.36;77.32;102032.63;5072038;28;20051;-67
2021/11/09 01:34:14;;;;;;;5.03;4.28;;;;;;;-3.28;77.64;102054.97;5072104;28;20273;-66
2021/11/09 01:36:40;;;;;;;4.50;3.50;;;;;;;-3.30;77.53;102048.09;5072485;28;20502;-67
2021/11/09 01:39:07;;;;;;;3.50;3.03;;;;;;;-3.28;77.23;102051.50;5072617;28;20522;-66
2021/11/09 01:41:33;;;;;;;5.00;3.00;;;;;;;-3.33;77.51;102040.38;5073034;28;20041;-66
2021/11/09 01:44:00;;;;;;;4.77;3.17;;;;;;;-3.33;77.67;102040.38;5074043;28;20406;-66
2021/11/09 01:46:26;;;;;;;3.25;3.05;;;;;;;-3.33;77.95;102061.19;5073771;28;20067;-67
2021/11/09 01:48:52;;;;;;;4.28;3.17;;;;;;;-3.34;77.11;102059.50;5072382;28;20032;-67
2021/11/09 01:51:19;;;;;;;4.20;3.50;;;;;;;-3.36;77.87;102053.47;5071950;28;20036;-69
2021/11/09 01:53:50;;;;;;;4.03;3.10;;;;;;;-3.43;77.21;102047.59;5071498;28;20390;-66
2021/11/09 01:56:21;;;;;;;2.55;2.35;;;;;;;-3.44;77.27;102041.53;5071603;28;20119;-67
2021/11/09 01:58:48;;;;;;;2.67;2.10;;;;;;;-3.47;77.50;102043.34;5071729;28;20032;-68
2021/11/09 02:01:16;;;;;;;4.28;2.90;;;;;;;-3.34;77.63;102051.69;5071723;28;20040;-66
2021/11/09 02:03:48;;;;;;;3.40;2.10;;;;;;;-3.38;77.60;102065.69;5053730;28;20036;-66
2021/11/09 02:06:15;;;;;;;4.43;2.55;;;;;;;-3.38;77.33;102068.28;5071746;28;20271;-65
2021/11/09 02:08:41;;;;;;;4.05;2.13;;;;;;;-3.54;76.97;102037.44;5071465;28;20040;-67
2021/11/09 02:11:08;;;;;;;3.03;2.27;;;;;;;-3.60;77.59;102024.59;5071565;28;20089;-66
2021/11/09 02:13:33;;;;;;;3.50;3.22;;;;;;;-3.53;77.23;102043.50;5071757;28;20290;-66
2021/11/09 02:15:59;;;;;;;4.00;2.57;;;;;;;-3.48;76.83;102039.88;5071756;28;20087;-66
2021/11/09 02:18:25;;;;;;;2.60;2.40;;;;;;;-3.31;77.04;102077.66;5072082;28;20032;-66
2021/11/09 02:20:58;;;;;;;3.85;2.63;;;;;;;-3.40;77.58;102067.47;5071393;28;20060;-65
2021/11/09 02:23:29;;;;;;;3.45;3.15;;;;;;;-3.39;77.12;102074.41;5036681;28;20028;-65
2021/11/09 02:25:55;;;;;;;3.83;2.50;;;;;;;-3.39;77.71;102082.22;5072806;28;20037;-66
2021/11/09 02:28:21;;;;;;;4.93;2.70;;;;;;;-3.36;77.50;102092.53;5078260;28;20052;-66
2021/11/09 02:30:46;;;;;;;5.13;3.00;;;;;;;-3.40;77.77;102093.53;5077508;28;20094;-66
2021/11/09 02:33:12;;;;;;;7.00;2.70;;;;;;;-3.41;77.55;102097.03;5076557;28;20404;-66
2021/11/09 02:35:39;;;;;;;5.00;2.70;;;;;;;-3.36;77.16;102109.03;5075051;28;20032;-66
2021/11/09 02:38:05;;;;;;;3.70;2.65;;;;;;;-3.39;77.76;102100.44;5074977;28;20561;-67
2021/11/09 02:40:31;;;;;;;4.70;3.50;;;;;;;-3.39;77.85;102108.25;5075154;28;20101;-67
2021/11/09 02:43:01;;;;;;;4.30;3.90;;;;;;;-3.52;77.69;102092.09;5074990;28;20037;-66
2021/11/09 02:45:36;;;;;;;4.20;3.50;;;;;;;-3.41;77.82;102107.44;5074648;28;20099;-66
2021/11/09 02:48:07;;;;;;;3.83;2.85;;;;;;;-3.78;77.79;102051.97;5074806;28;20071;-66
2021/11/09 02:50:36;;;;;;;3.63;2.92;;;;;;;-3.44;77.55;102108.38;5074655;28;20036;-67
2021/11/09 02:53:08;;;;;;;6.07;3.38;;;;;;;-3.46;77.97;102111.03;5074861;28;20620;-66
2021/11/09 02:55:47;;;;;;;6.22;3.08;;;;;;;-3.52;77.85;102103.34;5057031;28;20384;-67
2021/11/09 03:00:57;;;;;;;5.85;2.38;;;;;;;-3.49;78.34;102115.44;5074827;28;20032;-65
2021/11/09 03:06:20;;;;;;;2.80;2.53;;;;;;;-3.51;78.92;102117.22;5074560;28;20036;-66
2021/11/09 03:09:12;;;;;;;2.33;1.67;;;;;;;-3.44;79.20;102135.28;5074642;28;20119;-66
2021/11/09 03:11:33;;;;;;;5.38;2.35;;;;;;;-3.48;78.95;102123.22;5073849;28;20155;-66
2021/11/09 03:13:59;;;;;;;3.42;2.10;;;;;;;-3.40;78.50;102135.22;5056998;28;20044;-67
2021/11/09 03:16:28;;;;;;;2.37;2.00;;;;;;;-3.42;78.76;102137.00;5074258;28;20045;-65
2021/11/09 03:19:02;;;;;;;2.83;2.08;;;;;;;-3.44;78.77;102145.72;5074649;28;20633;-66
2021/11/09 03:46:38;;;;;;;6.55;2.28;;;;;;;-3.51;79.76;102154.53;5073747;28;20055;-65
2021/11/09 03:49:06;;;;;;;4.50;2.40;;;;;;;-3.56;80.14;102156.41;5056089;28;20068;-67
2021/11/09 03:51:33;;;;;;;4.25;2.22;;;;;;;-3.53;80.76;102163.28;5073725;28;20127;-66
2021/11/09 03:54:01;;;;;;;3.42;2.25;;;;;;;-3.55;80.00;102159.88;5073871;28;20040;-64
2021/11/09 03:56:36;;;;;;;8.00;2.33;;;;;;;-3.57;80.60;102149.50;5055584;28;20068;-67
2021/11/09 03:59:06;;;;;;;3.90;2.35;;;;;;;-3.53;80.21;102158.09;5073518;28;20036;-61
2021/11/09 04:02:22;;;;;;;5.05;2.20;;;;;;;-3.56;80.54;102168.59;5073406;28;20138;-63
2021/11/09 04:10:07;;;;;;;4.83;2.57;;;;;;;-3.69;80.76;102178.47;4991754;28;20121;-63
2021/11/09 04:28:07;;;;;;;3.92;2.55;;;;;;;-3.55;80.36;102197.19;5073305;28;20049;-65
2021/11/09 05:01:48;;;;;;;7.25;3.10;;;;;;;-3.49;80.85;102254.34;5072909;28;20036;-62
2021/11/09 05:09:44;;;;;;;4.05;2.50;;;;;;;-3.56;80.55;102249.31;5072334;28;20048;-65
2021/11/09 05:12:09;;;;;;;4.75;2.60;;;;;;;-3.47;81.03;102265.59;5072670;28;20039;-63
2021/11/09 05:14:36;;;;;;;7.53;2.93;;;;;;;-3.49;80.94;102264.75;5072248;28;20034;-61
2021/11/09 05:17:02;;;;;;;6.07;3.25;;;;;;;-3.42;81.25;102275.91;5054480;28;20089;-62
2021/11/09 05:19:28;;;;;;;9.50;4.50;;;;;;;-3.42;80.66;102272.44;5071801;28;20127;-63
2021/11/09 05:21:53;;;;;;;4.27;2.40;;;;;;;-3.44;81.00;102273.34;5071960;28;20518;-62
2021/11/09 05:24:19;;;;;;;3.47;2.90;;;;;;;-3.40;81.30;102271.50;5071798;28;20412;-58
2021/11/09 05:26:45;;;;;;;3.77;3.03;;;;;;;-3.36;81.14;102293.13;5071815;28;20491;-58
2021/11/09 05:29:11;;;;;;;6.23;2.30;;;;;;;-3.46;80.96;102274.25;5071921;28;20040;-63
2021/11/09 05:31:38;;;;;;;4.50;2.45;;;;;;;-3.78;80.59;102217.72;5072045;28;20297;-61
2021/11/09 05:34:04;;;;;;;5.28;3.35;;;;;;;-3.34;80.55;102292.19;5071976;28;20040;-61
2021/11/09 05:36:38;;;;;;;8.25;3.28;;;;;;;-3.33;80.31;102293.06;5071863;28;20040;-61
2021/11/09 05:41:39;;;;;;;2.90;2.30;;;;;;;-3.35;80.75;102282.66;5071828;28;20057;-60
2021/11/09 05:44:07;;;;;;;5.70;2.50;;;;;;;-3.26;81.07;102299.81;5071505;28;20498;-59
2021/11/09 05:46:38;;;;;;;3.67;2.78;;;;;;;-3.26;80.85;102303.28;5071851;28;20053;-64
2021/11/09 05:49:04;;;;;;;21.17;3.63;;;;;;;-3.30;81.06;102298.19;5071776;28;20036;-60
2021/11/09 05:51:30;;;;;;;6.38;2.80;;;;;;;-3.28;81.17;102310.28;5071638;28;20121;-55
2021/11/09 05:53:55;;;;;;;4.88;2.90;;;;;;;-3.30;81.07;102313.81;5071522;28;20037;-56
2021/11/09 05:56:21;;;;;;;5.17;3.20;;;;;;;-3.30;80.64;102324.25;5071672;28;20490;-63
2021/11/09 05:58:47;;;;;;;6.95;2.30;;;;;;;-3.41;81.09;102303.66;5071563;28;20047;-60
2021/11/09 06:01:13;;;;;;;4.97;2.43;;;;;;;-3.17;81.13;102341.31;5074873;28;20032;-64
2021/11/09 06:03:38;;;;;;;3.07;2.77;;;;;;;-3.19;80.61;102333.50;5075898;28;20123;-62
2021/11/09 06:06:04;;;;;;;3.23;2.83;;;;;;;-3.05;80.42;102337.53;5075780;28;20399;-61
2021/11/09 06:08:30;;;;;;;10.40;4.18;;;;;;;-3.04;80.31;102337.50;5075383;28;20103;-62
2021/11/09 06:10:55;;;;;;;4.60;2.77;;;;;;;-2.93;79.98;102350.25;5075731;28;20070;-61
2021/11/09 06:13:21;;;;;;;8.70;3.33;;;;;;;-2.79;80.26;102353.41;5075470;28;20032;-66
2021/11/09 06:15:46;;;;;;;11.17;2.93;;;;;;;-2.73;79.74;102361.06;5074000;28;20115;-62
2021/11/09 06:18:12;;;;;;;5.40;2.80;;;;;;;-2.74;79.29;102355.88;5075394;28;20036;-64
2021/11/09 06:20:37;;;;;;;5.27;2.70;;;;;;;-2.57;79.00;102369.38;5075148;28;20037;-69
2021/11/09 06:23:04;;;;;;;7.10;3.03;;;;;;;-2.54;78.47;102354.50;5074571;28;20034;-71
2021/11/09 06:25:29;;;;;;;6.78;3.47;;;;;;;-2.29;77.80;102385.16;5074463;28;20517;-65
2021/11/09 06:27:55;;;;;;;11.23;4.20;;;;;;;-2.28;76.54;102374.69;5074719;28;20028;-69
2021/11/09 06:30:22;;;;;;;2.73;2.47;;;;;;;-2.37;76.05;102367.06;5074850;28;20040;-69
2021/11/09 06:32:48;;;;;;;8.00;2.83;;;;;;;-2.32;76.90;102395.66;5056985;28;20032;-68
2021/11/09 06:35:14;;;;;;;8.15;2.58;;;;;;;-2.27;76.65;102404.25;5077433;28;20040;-66
2021/11/09 06:37:39;;;;;;;3.17;2.53;;;;;;;-2.20;76.96;102400.56;5076900;28;20032;-61
2021/11/09 06:40:07;;;;;;;5.33;2.40;;;;;;;-2.11;76.73;102404.66;5076341;28;20032;-68
2021/11/09 06:42:34;;;;;;;5.10;2.50;;;;;;;-2.11;76.56;102404.66;5054071;28;20452;-68
2021/11/09 06:45:00;;;;;;;7.60;2.85;;;;;;;-2.23;76.01;102396.28;5074731;28;20494;-67
2021/11/09 06:47:26;;;;;;;6.35;3.33;;;;;;;-2.15;75.81;102414.34;5074404;28;20052;-67
2021/11/09 06:49:52;;;;;;;3.77;3.03;;;;;;;-2.36;76.00;102375.75;5056261;28;20029;-71
2021/11/09 06:52:17;;;;;;;4.80;2.70;;;;;;;-2.08;76.18;102420.25;5055986;28;20376;-62
2021/11/09 06:54:44;;;;;;;6.33;2.97;;;;;;;-2.38;75.98;102367.97;5056531;28;20376;-67
2021/11/09 06:57:11;;;;;;;3.30;2.75;;;;;;;-2.04;75.04;102427.09;5074209;28;20170;-69
2021/11/09 06:59:47;;;;;;;8.07;2.93;;;;;;;-2.03;75.59;102418.38;5074307;28;20041;-68
2021/11/09 07:02:12;;;;;;;5.30;3.38;;;;;;;-1.95;75.83;102426.88;5071761;28;20417;-63
2021/11/09 07:04:38;;;;;;;6.53;2.97;;;;;;;-1.90;75.04;102433.66;5056328;28;20466;-63
2021/11/09 07:07:07;;;;;;;18.60;3.67;;;;;;;-1.97;75.00;102432.13;5074219;28;20511;-65
2021/11/09 07:09:32;;;;;;;;;;;;;;;-2.01;75.19;102440.94;5074434;28;20027;-65
2021/11/09 07:11:58;;;;;;;8.37;3.20;;;;;;;-2.28;75.17;102411.22;5073090;28;19920;-68
2021/11/09 07:14:24;;;;;;;5.97;3.20;;;;;;;-2.16;75.01;102422.22;5073762;28;20082;-62
2021/11/09 07:16:52;;;;;;;4.33;2.90;;;;;;;-2.00;74.41;102452.25;5073551;28;20032;-63
2021/11/09 07:19:18;;;;;;;4.75;3.60;;;;;;;-2.08;75.23;102457.66;5068311;28;20521;-62
2021/11/09 07:21:46;;;;;;;9.27;3.40;;;;;;;-2.15;75.42;102450.03;5073472;28;20037;-63
2021/11/09 07:24:12;;;;;;;5.50;3.53;;;;;;;-2.09;74.76;102465.53;5073647;28;20282;-61
2021/11/09 07:26:38;;;;;;;13.88;8.10;;;;;;;-2.00;75.00;102467.91;5073552;28;20279;-66
2021/11/09 07:29:03;;;;;;;7.23;3.13;;;;;;;-1.92;74.66;102468.56;5073846;28;20039;-61
2021/11/09 07:31:32;;;;;;;9.10;4.93;;;;;;;-1.99;74.51;102451.34;5073636;28;20520;-62
2021/11/09 07:33:58;;;;;;;5.10;2.83;;;;;;;-2.01;73.81;102456.63;5071674;28;20066;-65
2021/11/09 07:36:25;;;;;;;6.83;3.10;;;;;;;-2.01;73.99;102459.22;5038212;28;20055;-64
2021/11/09 07:38:50;;;;;;;6.15;3.42;;;;;;;-1.91;73.83;102496.38;5073898;28;20306;-63
2021/11/09 07:41:16;;;;;;;4.73;3.10;;;;;;;-2.14;73.89;102486.53;5073991;28;20060;-64
2021/11/09 07:43:43;;;;;;;13.27;3.80;;;;;;;-2.10;73.98;102511.66;5073611;28;20063;-61
2021/11/09 07:46:09;;;;;;;11.52;3.10;;;;;;;-2.10;74.02;102522.09;5073150;28;20139;-63
2021/11/09 07:48:35;;;;;;;11.15;3.38;;;;;;;-2.17;74.68;102514.47;5073253;28;20036;-65
2021/11/09 07:51:01;;;;;;;6.00;2.93;;;;;;;-2.18;74.35;102521.44;5073393;28;20169;-62
2021/11/09 07:53:34;;;;;;;7.32;2.60;;;;;;;-2.16;74.65;102516.19;5072929;28;20491;-68
2021/11/09 07:56:35;;;;;;;3.30;3.00;;;;;;;-2.06;73.99;102539.41;5070708;28;20036;-69
2021/11/09 08:01:42;;;;;;;5.07;3.13;;;;;;;-2.23;74.85;102542.44;5072847;28;20115;-61
2021/11/09 08:04:24;;;;;;;4.10;3.60;;;;;;;-2.47;74.95;102490.84;5072874;28;20046;-60
2021/11/09 08:09:25;;;;;;;6.00;3.30;;;;;;;-2.30;74.99;102532.19;5072647;28;20033;-61
2021/11/09 08:11:51;;;;;;;3.28;2.97;;;;;;;-2.46;75.22;102528.22;5072843;28;20036;-70
2021/11/09 08:14:17;;;;;;;3.63;3.20;;;;;;;-2.37;75.23;102548.88;5053225;28;20479;-66
2021/11/09 08:16:43;;;;;;;3.85;3.15;;;;;;;-2.31;75.66;102528.72;5054457;28;20090;-63
2021/11/09 08:19:10;;;;;;;6.70;3.63;;;;;;;-2.08;74.85;102554.25;5072826;28;20032;-65
2021/11/09 08:21:36;;;;;;;5.20;3.40;;;;;;;-2.05;74.20;102550.69;5054193;28;20262;-65
2021/11/09 08:24:03;;;;;;;4.37;3.27;;;;;;;-2.04;74.21;102557.63;5071486;28;20294;-70
2021/11/09 08:26:29;;;;;;;7.50;3.67;;;;;;;-1.98;73.77;102571.41;5072988;28;20037;-64
2021/11/09 08:28:56;;;;;;;3.97;3.20;;;;;;;-1.92;73.51;102559.94;5072943;28;20328;-66
2021/11/09 08:31:23;;;;;;;4.82;3.47;;;;;;;-1.82;73.49;102564.03;5054617;28;20764;-63
2021/11/09 08:33:50;;;;;;;4.27;3.23;;;;;;;-1.89;72.76;102552.91;5072670;28;20058;-67
2021/11/09 08:36:21;;;;;;;6.93;4.27;;;;;;;-1.64;73.26;102570.56;5072675;28;20271;-66
2021/11/09 08:38:49;;;;;;;4.23;3.30;;;;;;;-1.59;72.61;102577.34;5072845;28;20270;-67
2021/11/09 08:41:18;;;;;;;6.27;4.70;;;;;;;-1.65;72.71;102577.53;5071975;28;20301;-68
2021/11/09 08:44:07;;;;;;;5.25;4.45;;;;;;;-1.75;72.18;102583.88;5074150;28;20286;-70
2021/11/09 08:46:39;;;;;;;3.00;2.70;;;;;;;-1.71;72.11;102577.69;5052072;28;20044;-67
2021/11/09 08:49:07;;;;;;;4.17;3.43;;;;;;;-1.84;71.63;102550.16;5055397;28;20312;-74
2021/11/09 08:51:36;;;;;;;5.57;3.97;;;;;;;-1.58;72.22;102578.22;5038156;28;20267;-66
2021/11/09 08:54:19;;;;;;;6.90;4.40;;;;;;;-1.49;72.16;102596.25;5072111;28;20332;-71
2021/11/09 08:57:09;;;;;;;6.57;5.20;;;;;;;-1.50;71.79;102596.28;5071931;28;20741;-66
2021/11/09 09:05:06;;;;;;;6.97;4.50;;;;;;;-1.33;71.19;102587.13;5070217;28;20922;-67
2021/11/09 09:07:36;;;;;;;7.78;4.28;;;;;;;-1.29;70.93;102600.97;5070526;28;20371;-64
2021/11/09 09:10:08;;;;;;;9.93;5.30;;;;;;;-1.46;71.37;102603.16;5070495;28;20123;-68
2021/11/09 09:12:35;;;;;;;5.17;4.77;;;;;;;-1.75;72.16;102602.16;5072226;28;20271;-63
2021/11/09 09:15:04;;;;;;;8.97;5.37;;;;;;;-1.83;73.09;102609.34;5072048;28;20271;-62
2021/11/09 09:17:36;;;;;;;9.97;5.67;;;;;;;-1.83;73.62;102609.34;5071897;28;20738;-66
2021/11/09 09:20:10;;;;;;;10.93;6.47;;;;;;;-1.73;73.47;102615.19;5071921;28;20333;-65
2021/11/09 09:22:45;;;;;;;6.83;5.37;;;;;;;-1.57;72.91;102604.31;5071424;28;20611;-64
2021/11/09 09:31:00;;;;;;;10.60;6.00;;;;;;;-1.47;71.94;102611.91;5071611;28;20271;-62
2021/11/09 09:55:39;;;;;;;9.97;5.77;;;;;;;-1.65;73.16;102595.81;5091031;28;20388;-63
2021/11/09 09:58:07;;;;;;;15.67;6.33;;;;;;;-1.62;72.65;102598.34;5091886;28;20266;-65
2021/11/09 10:00:34;;;;;;;10.18;6.00;;;;;;;-1.61;72.72;102592.22;5091685;28;20276;-60
2021/11/09 10:03:00;;;;;;;7.93;6.73;;;;;;;-1.59;72.12;102613.94;5091917;28;20451;-64
2021/11/09 10:05:26;;;;;;;10.03;5.90;;;;;;;-1.97;73.19;102564.44;5091965;28;20384;-63
2021/11/09 10:07:54;;;;;;;12.20;6.23;;;;;;;-1.76;72.98;102603.06;5091668;28;20085;-63
2021/11/09 10:10:29;;;;;;;12.55;7.25;;;;;;;-1.88;72.96;102569.41;5091684;28;20255;-64
2021/11/09 10:13:02;;;;;;;11.27;6.87;;;;;;;-1.62;73.35;102600.97;5090561;28;20039;-63
2021/11/09 10:15:32;;;;;;;9.47;6.40;;;;;;;-1.64;72.36;102576.63;5091868;28;20271;-62
2021/11/09 10:18:02;;;;;;;12.43;5.90;;;;;;;-1.46;71.98;102604.00;5091904;28;20272;-63
2021/11/09 10:20:41;;;;;;;8.90;5.53;;;;;;;-1.36;72.47;102622.94;5091151;28;20392;-63
2021/11/09 10:23:11;;;;;;;10.00;5.97;;;;;;;-1.74;72.36;102575.13;5091614;28;20269;-63
2021/11/09 10:25:37;;;;;;;7.57;6.27;;;;;;;-1.75;72.82;102581.25;5090214;28;20044;-62
2021/11/09 10:28:11;;;;;;;8.60;4.73;;;;;;;-1.52;73.14;102619.84;5091667;28;20274;-64
2021/11/09 10:30:41;;;;;;;8.60;6.13;;;;;;;-1.36;72.53;102625.56;5091445;28;20120;-63
2021/11/09 10:33:13;;;;;;;10.50;5.60;;;;;;;-1.27;72.37;102626.16;5090887;28;20823;-65
2021/11/09 10:35:47;;;;;;;7.53;5.07;;;;;;;-1.27;72.33;102620.06;5089695;28;20285;-62
2021/11/09 10:38:13;;;;;;;10.47;6.43;;;;;;;-1.30;72.39;102625.38;5091097;28;20039;-62
2021/11/09 10:40:46;;;;;;;9.40;5.03;;;;;;;-1.13;72.14;102622.31;5090498;28;20634;-64
2021/11/09 10:43:16;;;;;;;14.10;6.10;;;;;;;-0.88;71.33;102615.47;5090009;28;20036;-64
2021/11/09 10:45:43;;;;;;;8.63;5.90;;;;;;;-0.81;70.67;102621.41;5070644;28;20299;-61
2021/11/09 10:48:13;;;;;;;6.67;5.47;;;;;;;-0.98;70.97;102633.19;5055654;28;20040;-63
2021/11/09 10:50:43;;;;;;;11.00;5.97;;;;;;;-1.23;72.43;102623.47;5074544;28;20281;-69
2021/11/09 10:56:57;;;;;;;8.40;5.20;;;;;;;-1.30;73.24;102634.09;5074314;28;20282;-62
2021/11/09 11:04:39;;;;;;;12.60;6.47;;;;;;;-1.13;72.85;102638.00;5055727;28;20418;-64
2021/11/09 11:07:08;;;;;;;13.90;5.87;;;;;;;-1.09;72.03;102645.72;5074587;28;20286;-62
2021/11/09 11:09:40;;;;;;;5.72;4.38;;;;;;;-0.89;71.19;102645.16;5056387;28;20267;-62
2021/11/09 11:12:13;;;;;;;8.80;4.70;;;;;;;-0.76;71.14;102650.91;5074401;28;20036;-64
2021/11/09 11:14:41;;;;;;;20.83;5.90;;;;;;;-1.14;71.37;102613.63;5073917;28;20279;-61
2021/11/09 11:17:09;;;;;;;9.85;4.57;;;;;;;-1.13;71.89;102653.69;5074089;28;20266;-64
2021/11/09 11:19:43;;;;;;;5.90;4.25;;;;;;;-1.20;72.49;102655.59;5074387;28;20564;-63
2021/11/09 11:22:14;;;;;;;7.80;5.13;;;;;;;-1.35;72.92;102650.78;5074263;28;20042;-62
2021/11/09 11:24:40;;;;;;;6.40;4.13;;;;;;;-1.36;73.38;102660.38;5074256;28;20286;-62
2021/11/09 11:27:06;;;;;;;9.50;5.17;;;;;;;-1.26;72.77;102676.69;5055873;28;20643;-64
2021/11/09 11:29:36;;;;;;;10.50;4.70;;;;;;;-1.22;72.09;102667.84;5074035;28;20040;-63
2021/11/09 11:32:03;;;;;;;26.93;7.97;;;;;;;-1.24;72.89;102667.03;5074079;28;20752;-63
2021/11/09 11:34:29;;;;;;;14.03;6.10;;;;;;;-1.46;72.80;102621.44;5073702;28;20286;-64
2021/11/09 11:36:55;;;;;;;9.03;4.80;;;;;;;-1.20;72.30;102662.59;5073744;28;20765;-67
2021/11/09 11:39:26;;;;;;;8.17;5.33;;;;;;;-1.19;72.69;102653.84;5054525;28;20062;-65
2021/11/09 11:41:58;;;;;;;7.13;5.63;;;;;;;-1.21;72.48;102660.88;5055466;28;20271;-59
2021/11/09 11:44:39;;;;;;;10.20;5.80;;;;;;;-1.30;72.47;102664.59;5072231;28;20359;-64
2021/11/09 11:47:18;;;;;;;8.13;4.73;;;;;;;-1.48;72.62;102637.16;5052592;28;20278;-64
2021/11/09 11:49:59;;;;;;;6.80;5.43;;;;;;;-1.35;72.44;102659.50;5069959;28;20270;-60
2021/11/09 11:52:28;;;;;;;7.10;5.03;;;;;;;-1.30;72.16;102656.75;5072867;28;20283;-60
2021/11/09 11:55:27;;;;;;;24.90;9.30;;;;;;;-1.26;72.40;102658.38;5073061;28;20281;-63
2021/11/09 11:58:05;;;;;;;27.10;13.23;;;;;;;-1.21;73.13;102655.63;5063572;28;20048;-68
2021/11/09 12:00:45;;;;;;;15.30;8.60;;;;;;;-1.23;72.36;102653.06;5070931;28;20263;-66
2021/11/09 12:03:23;;;;;;;15.97;7.80;;;;;;;-1.31;72.70;102658.50;5053304;28;20797;-63
2021/11/09 12:05:52;;;;;;;12.85;6.50;;;;;;;-1.26;72.59;102664.47;5071323;28;20329;-69
2021/11/09 12:08:34;;;;;;;8.63;6.03;;;;;;;-1.21;73.04;102666.97;5072690;28;20052;-60
2021/11/09 12:11:00;;;;;;;14.00;5.90;;;;;;;-1.19;72.46;102662.53;5072648;28;20255;-61
2021/11/09 12:13:26;;;;;;;14.97;5.00;;;;;;;-1.18;72.73;102664.25;5072695;28;20872;-61
2021/11/09 12:16:00;;;;;;;9.93;5.03;;;;;;;-1.15;72.90;102661.59;5072501;28;20301;-64
2021/11/09 12:18:32;;;;;;;9.90;3.43;;;;;;;-1.18;72.45;102669.47;5052269;28;20040;-66
2021/11/09 12:21:03;;;;;;;6.77;3.90;;;;;;;-1.24;72.56;102664.44;5072294;28;20278;-63
2021/11/09 12:23:30;;;;;;;7.43;3.23;;;;;;;-1.17;72.18;102679.03;5071305;28;20284;-65
2021/11/09 12:25:59;;;;;;;11.20;3.70;;;;;;;-1.23;72.73;102673.97;5032715;28;20265;-64
2021/11/09 12:28:36;;;;;;;8.52;4.75;;;;;;;-1.29;72.40;102672.41;5070760;28;20688;-68
2021/11/09 12:31:25;;;;;;;8.70;3.97;;;;;;;-1.26;72.57;102674.06;5051831;28;20040;-66
2021/11/09 12:33:51;;;;;;;12.27;4.40;;;;;;;-1.28;72.80;102688.94;5057413;28;20809;-63
2021/11/09 12:36:36;;;;;;;8.00;4.33;;;;;;;-1.38;73.40;102677.00;5071625;28;20088;-72
2021/11/09 12:39:03;;;;;;;8.43;3.23;;;;;;;-1.30;73.55;102682.91;5071590;28;20040;-71
2021/11/09 12:42:09;;;;;;;7.00;4.07;;;;;;;-1.33;73.32;102688.19;5070316;28;20278;-73
2021/11/09 12:45:11;;;;;;;8.50;4.73;;;;;;;-1.33;73.73;102682.97;5064130;28;20295;-69
2021/11/09 12:47:37;;;;;;;8.47;3.77;;;;;;;-1.54;73.82;102653.00;5051474;28;20338;-67
2021/11/09 12:50:04;;;;;;;7.40;4.03;;;;;;;-1.48;73.62;102671.13;5070022;28;20374;-63
2021/11/09 12:53:24;;;;;;;9.20;4.03;;;;;;;-1.31;73.84;102696.88;5052796;28;20819;-71
2021/11/09 12:56:14;;;;;;;7.27;3.90;;;;;;;-1.34;73.90;102700.41;4952248;28;20274;-66
2021/11/09 13:02:51;;;;;;;36.07;27.73;;;;;;;-1.32;74.45;102705.59;5068075;28;20282;-67
2021/11/09 13:05:28;;;;;;;11.80;4.63;;;;;;;-1.33;75.01;102701.28;5054533;28;20290;-73
2021/11/09 13:08:08;;;;;;;11.70;4.27;;;;;;;-1.36;75.05;102701.34;5072152;28;20786;-71
2021/11/09 13:10:38;;;;;;;11.93;4.00;;;;;;;-1.34;74.56;102712.63;5053377;28;20360;-70
2021/11/09 13:13:04;;;;;;;11.40;4.40;;;;;;;-1.35;74.97;102708.28;5053481;28;20283;-71
2021/11/09 13:15:32;;;;;;;5.90;3.87;;;;;;;-1.49;74.75;102685.09;5070926;28;20316;-70
2021/11/09 13:18:04;;;;;;;12.05;3.53;;;;;;;-1.45;74.83;102704.19;5072152;28;20036;-70
2021/11/09 13:20:37;;;;;;;15.67;5.47;;;;;;;-1.44;75.25;102717.22;5073460;28;20051;-69
2021/11/09 13:23:16;;;;;;;5.37;4.23;;;;;;;-1.47;74.86;102712.06;5071735;28;20342;-70
2021/11/09 13:25:55;;;;;;;4.22;3.60;;;;;;;-1.40;75.38;102723.25;5052375;28;20433;-71
2021/11/09 13:32:14;;;;;;;8.30;4.20;;;;;;;-1.40;75.23;102723.25;5070020;28;20275;-68
2021/11/09 13:34:40;;;;;;;6.10;4.43;;;;;;;-1.59;75.08;102691.47;5070960;28;20369;-71
2021/11/09 13:37:07;;;;;;;10.30;4.77;;;;;;;-1.58;74.93;102690.56;5054523;28;20773;-71
2021/11/09 13:39:33;;;;;;;11.30;6.07;;;;;;;-1.66;75.41;102688.16;5071277;28;20266;-71
2021/11/09 13:41:58;;;;;;;19.63;8.70;;;;;;;-1.67;75.73;102673.38;5071515;28;20753;-73
2021/11/09 13:44:33;;;;;;;18.07;8.13;;;;;;;-1.42;75.93;102717.19;5070862;28;20102;-71
2021/11/09 13:47:00;;;;;;;14.57;8.47;;;;;;;-1.49;75.77;102708.63;5071062;28;20127;-71
2021/11/09 13:49:25;;;;;;;25.80;14.77;;;;;;;-1.41;76.01;102711.06;5071662;28;20416;-72
2021/11/09 13:51:59;;;;;;;14.93;8.37;;;;;;;-1.49;75.78;102698.16;5071628;28;20040;-71
2021/11/09 13:55:05;;;;;;;17.37;8.70;;;;;;;-1.43;75.80;102700.66;5072515;28;20041;-81
2021/11/09 13:57:32;;;;;;;16.57;7.70;;;;;;;-1.44;75.92;102679.78;5052779;28;20302;-72
2021/11/09 14:00:34;;;;;;;11.60;6.83;;;;;;;-1.50;75.73;102679.91;5071290;28;20407;-73
2021/11/09 14:03:09;;;;;;;12.97;6.93;;;;;;;-1.42;76.05;102698.91;5053571;28;20407;-69
2021/11/09 14:08:39;;;;;;;11.23;6.43;;;;;;;-1.43;76.24;102678.88;5053701;28;20282;-72